createdAt,value
2019-05-30T00:00:14.412Z,983.46
2019-05-30T00:01:58.657Z,983.41
2019-05-30T00:02:58.576Z,983.45
2019-05-30T00:03:58.886Z,983.43
2019-05-30T00:04:58.243Z,983.43
2019-05-30T00:07:58.182Z,983.45
2019-05-30T00:08:58.427Z,983.42
2019-05-30T00:09:58.404Z,983.45
2019-05-30T00:10:58.492Z,983.45
2019-05-30T00:12:58.644Z,983.36
2019-05-30T00:13:58.644Z,983.43
2019-05-30T00:14:58.617Z,983.37
2019-05-30T00:15:58.730Z,983.44
2019-05-30T00:18:58.749Z,983.36
2019-05-30T00:19:58.811Z,983.44
2019-05-30T00:20:58.744Z,983.35
2019-05-30T00:21:58.684Z,983.40
2019-05-30T00:23:57.944Z,983.45
2019-05-30T00:24:57.983Z,983.45
2019-05-30T00:25:59.055Z,983.33
2019-05-30T00:26:58.289Z,983.46
2019-05-30T00:29:57.966Z,983.27
2019-05-30T00:30:58.318Z,983.45
2019-05-30T00:31:57.982Z,983.39
2019-05-30T00:32:58.923Z,983.35
2019-05-30T00:35:57.965Z,983.39
2019-05-30T00:36:57.975Z,983.32
2019-05-30T00:37:58.005Z,983.45
2019-05-30T00:38:57.962Z,983.43
2019-05-30T00:41:57.966Z,983.42
2019-05-30T00:42:57.978Z,983.43
2019-05-30T00:43:58.026Z,983.38
2019-05-30T00:44:57.970Z,983.45
2019-05-30T00:47:58.121Z,983.38
2019-05-30T00:48:58.259Z,983.40
2019-05-30T00:49:58.201Z,983.42
2019-05-30T00:50:58.335Z,983.40
2019-05-30T00:53:58.561Z,983.42
2019-05-30T00:54:58.469Z,983.39
2019-05-30T00:55:58.563Z,983.38
2019-05-30T00:56:58.606Z,983.49
2019-05-30T00:59:58.764Z,983.40
2019-05-30T01:00:59.021Z,983.44
2019-05-30T01:01:58.590Z,983.45
2019-05-30T01:02:59.918Z,983.47
2019-05-30T01:05:58.714Z,983.43
2019-05-30T01:06:58.939Z,983.47
2019-05-30T01:07:58.777Z,983.35
2019-05-30T01:08:59.061Z,983.42
2019-05-30T01:11:59.149Z,983.35
2019-05-30T01:12:59.783Z,983.43
2019-05-30T01:13:58.977Z,983.45
2019-05-30T01:14:58.925Z,983.28
2019-05-30T01:16:58.992Z,983.38
2019-05-30T01:17:59.048Z,983.40
2019-05-30T01:18:59.049Z,983.43
2019-05-30T01:19:59.086Z,983.36
2019-05-30T01:22:59.154Z,983.41
2019-05-30T01:23:59.142Z,983.50
2019-05-30T01:24:58.896Z,983.44
2019-05-30T01:25:59.212Z,983.51
2019-05-30T01:27:59.401Z,983.50
2019-05-30T01:28:59.245Z,983.52
2019-05-30T01:29:59.079Z,983.45
2019-05-30T01:31:02.997Z,983.52
2019-05-30T01:33:58.022Z,983.40
2019-05-30T01:34:58.049Z,983.38
2019-05-30T01:35:57.997Z,983.48
2019-05-30T01:36:57.999Z,983.44
2019-05-30T01:38:58.000Z,983.52
2019-05-30T01:39:58.017Z,983.36
2019-05-30T01:40:58.042Z,983.44
2019-05-30T01:41:58.003Z,983.48
2019-05-30T01:44:58.107Z,983.47
2019-05-30T01:45:58.069Z,983.42
2019-05-30T01:46:58.202Z,983.50
2019-05-30T01:47:58.217Z,983.59
2019-05-30T01:49:58.295Z,983.58
2019-05-30T01:50:58.296Z,983.60
2019-05-30T01:51:58.390Z,983.63
2019-05-30T01:52:58.478Z,983.64
2019-05-30T01:55:58.544Z,983.55
2019-05-30T01:56:58.450Z,983.64
2019-05-30T01:57:58.732Z,983.70
2019-05-30T01:58:58.652Z,983.58
2019-05-30T02:00:58.760Z,983.75
2019-05-30T02:01:58.867Z,983.72
2019-05-30T02:02:58.871Z,983.76
2019-05-30T02:03:59.117Z,983.82
2019-05-30T02:06:59.209Z,983.82
2019-05-30T02:07:58.974Z,983.77
2019-05-30T02:08:59.143Z,983.76
2019-05-30T02:09:59.119Z,983.87
2019-05-30T02:11:59.230Z,983.80
2019-05-30T02:12:59.219Z,983.87
2019-05-30T02:13:59.451Z,983.79
2019-05-30T02:14:59.304Z,983.77
2019-05-30T02:17:58.025Z,983.89
2019-05-30T02:18:58.060Z,983.84
2019-05-30T02:19:58.067Z,983.99
2019-05-30T02:20:58.029Z,983.92
2019-05-30T02:22:58.082Z,983.95
2019-05-30T02:23:58.034Z,983.93
2019-05-30T02:24:58.039Z,983.88
2019-05-30T02:25:58.080Z,984.09
2019-05-30T02:28:58.105Z,983.93
2019-05-30T02:29:58.040Z,983.98
2019-05-30T02:30:58.096Z,983.95
2019-05-30T02:31:58.085Z,983.97
2019-05-30T02:34:58.089Z,984.04
2019-05-30T02:35:58.042Z,983.95
2019-05-30T02:36:58.103Z,984.03
2019-05-30T02:37:58.101Z,984.07
2019-05-30T02:40:02.488Z,984.05
2019-05-30T02:40:58.124Z,984.10
2019-05-30T02:41:58.066Z,984.05
2019-05-30T02:42:58.081Z,984.09
2019-05-30T02:44:58.048Z,984.09
2019-05-30T02:45:58.106Z,984.16
2019-05-30T02:46:58.099Z,984.23
2019-05-30T02:47:58.051Z,984.15
2019-05-30T02:50:58.051Z,984.29
2019-05-30T02:51:58.098Z,984.26
2019-05-30T02:52:58.139Z,984.34
2019-05-30T02:53:58.055Z,984.25
2019-05-30T02:56:58.061Z,984.36
2019-05-30T02:57:58.098Z,984.26
2019-05-30T02:58:58.114Z,984.35
2019-05-30T02:59:58.060Z,984.29
2019-05-30T03:02:58.073Z,984.33
2019-05-30T03:03:58.098Z,984.30
2019-05-30T03:04:58.125Z,984.35
2019-05-30T03:05:58.075Z,984.36
2019-05-30T03:08:58.083Z,984.42
2019-05-30T03:09:58.126Z,984.28
2019-05-30T03:10:58.109Z,984.27
2019-05-30T03:11:58.082Z,984.34
2019-05-30T03:14:58.072Z,984.36
2019-05-30T03:15:58.109Z,984.35
2019-05-30T03:16:58.137Z,984.33
2019-05-30T03:17:58.075Z,984.33
2019-05-30T03:19:58.115Z,984.41
2019-05-30T03:20:58.092Z,984.31
2019-05-30T03:21:58.097Z,984.34
2019-05-30T03:22:58.135Z,984.34
2019-05-30T03:25:58.153Z,984.38
2019-05-30T03:26:58.092Z,984.37
2019-05-30T03:27:58.123Z,984.38
2019-05-30T03:28:58.126Z,984.41
2019-05-30T03:31:58.133Z,984.39
2019-05-30T03:33:07.388Z,984.45
2019-05-30T03:33:58.102Z,984.46
2019-05-30T03:34:58.126Z,984.48
2019-05-30T03:37:58.124Z,984.50
2019-05-30T03:38:58.120Z,984.54
2019-05-30T03:39:58.102Z,984.48
2019-05-30T03:40:58.125Z,984.52
2019-05-30T03:43:58.151Z,984.55
2019-05-30T03:44:58.095Z,984.51
2019-05-30T03:45:58.120Z,984.59
2019-05-30T03:46:58.138Z,984.61
2019-05-30T03:48:58.135Z,984.65
2019-05-30T03:49:58.137Z,984.68
2019-05-30T03:50:58.094Z,984.62
2019-05-30T03:51:58.131Z,984.57
2019-05-30T03:53:58.117Z,984.72
2019-05-30T03:54:58.151Z,984.74
2019-05-30T03:55:58.148Z,984.69
2019-05-30T03:56:58.099Z,984.75
2019-05-30T03:59:58.130Z,984.79
2019-05-30T04:00:58.121Z,984.81
2019-05-30T04:01:58.181Z,984.82
2019-05-30T04:02:59.259Z,984.80
2019-05-30T04:04:58.151Z,984.91
2019-05-30T04:05:58.110Z,984.84
2019-05-30T04:06:58.153Z,984.96
2019-05-30T04:07:58.135Z,984.94
2019-05-30T04:10:58.179Z,984.85
2019-05-30T04:11:58.129Z,984.90
2019-05-30T04:12:58.136Z,984.79
2019-05-30T04:13:58.185Z,984.98
2019-05-30T04:15:58.121Z,984.82
2019-05-30T04:16:58.180Z,984.93
2019-05-30T04:17:58.117Z,984.87
2019-05-30T04:18:58.307Z,984.84
2019-05-30T04:20:58.140Z,985.01
2019-05-30T04:21:58.137Z,984.91
2019-05-30T04:22:58.316Z,984.96
2019-05-30T04:23:58.140Z,984.95
2019-05-30T04:26:00.647Z,984.98
2019-05-30T04:26:58.137Z,984.89
2019-05-30T04:27:58.183Z,985.00
2019-05-30T04:28:58.175Z,985.03
2019-05-30T04:31:58.190Z,985.01
2019-05-30T04:33:16.332Z,985.01
2019-05-30T04:33:58.141Z,984.94
2019-05-30T04:34:58.169Z,985.11
2019-05-30T04:37:58.205Z,985.14
2019-05-30T04:38:58.148Z,985.08
2019-05-30T04:39:58.129Z,985.14
2019-05-30T04:40:58.168Z,985.01
2019-05-30T04:43:58.234Z,985.23
2019-05-30T04:44:58.145Z,985.20
2019-05-30T04:45:58.174Z,985.24
2019-05-30T04:46:58.176Z,985.19
2019-05-30T04:48:58.144Z,985.20
2019-05-30T04:49:58.182Z,985.23
2019-05-30T04:50:58.145Z,985.25
2019-05-30T04:51:58.142Z,985.22
2019-05-30T04:54:58.197Z,985.25
2019-05-30T04:55:58.217Z,985.29
2019-05-30T04:56:58.144Z,985.32
2019-05-30T04:57:58.156Z,985.32
2019-05-30T05:00:58.213Z,985.35
2019-05-30T05:01:58.204Z,985.38
2019-05-30T05:02:58.155Z,985.35
2019-05-30T05:03:58.169Z,985.35
2019-05-30T05:07:58.190Z,985.49
2019-05-30T05:08:58.152Z,985.39
2019-05-30T05:09:58.191Z,985.43
2019-05-30T05:10:58.210Z,985.51
2019-05-30T05:13:58.206Z,985.45
2019-05-30T05:14:58.184Z,985.52
2019-05-30T05:15:58.162Z,985.51
2019-05-30T05:16:58.221Z,985.50
2019-05-30T05:19:58.210Z,985.57
2019-05-30T05:20:58.177Z,985.60
2019-05-30T05:21:58.197Z,985.49
2019-05-30T05:22:58.205Z,985.66
2019-05-30T05:26:01.022Z,985.63
2019-05-30T05:26:58.180Z,985.72
2019-05-30T05:27:58.231Z,985.56
2019-05-30T05:28:58.208Z,985.69
2019-05-30T05:30:58.204Z,985.69
2019-05-30T05:31:58.226Z,985.69
2019-05-30T05:32:58.174Z,985.68
2019-05-30T05:33:58.196Z,985.65
2019-05-30T05:36:58.238Z,985.77
2019-05-30T05:37:58.229Z,985.66
2019-05-30T05:38:58.181Z,985.70
2019-05-30T05:39:58.177Z,985.85
2019-05-30T05:42:58.236Z,985.71
2019-05-30T05:43:58.236Z,985.70
2019-05-30T05:44:58.180Z,985.80
2019-05-30T05:45:58.206Z,985.73
2019-05-30T05:47:58.178Z,985.71
2019-05-30T05:48:58.206Z,985.78
2019-05-30T05:49:58.220Z,985.76
2019-05-30T05:50:58.184Z,985.90
2019-05-30T05:52:58.223Z,985.73
2019-05-30T05:53:58.183Z,985.86
2019-05-30T05:54:58.195Z,985.81
2019-05-30T05:55:58.250Z,985.88
2019-05-30T05:58:58.255Z,985.92
2019-05-30T05:59:58.217Z,985.89
2019-05-30T06:00:58.243Z,985.92
2019-05-30T06:01:58.237Z,986.01
2019-05-30T06:04:12.130Z,985.90
2019-05-30T06:04:58.251Z,985.88
2019-05-30T06:05:58.204Z,985.93
2019-05-30T06:06:58.208Z,986.03
2019-05-30T06:08:58.215Z,985.99
2019-05-30T06:09:58.201Z,986.00
2019-05-30T06:10:58.268Z,986.00
2019-05-30T06:11:58.207Z,986.04
2019-05-30T06:14:58.211Z,986.05
2019-05-30T06:15:58.208Z,986.13
2019-05-30T06:16:58.262Z,986.03
2019-05-30T06:17:58.236Z,986.00
2019-05-30T06:20:58.209Z,986.01
2019-05-30T06:21:58.232Z,985.94
2019-05-30T06:22:58.259Z,985.94
2019-05-30T06:23:58.215Z,985.98
2019-05-30T06:26:58.271Z,986.04
2019-05-30T06:27:58.216Z,986.04
2019-05-30T06:28:58.238Z,986.04
2019-05-30T06:29:58.279Z,986.07
2019-05-30T06:32:58.216Z,986.10
2019-05-30T06:33:58.259Z,986.12
2019-05-30T06:34:58.270Z,986.03
2019-05-30T06:35:58.267Z,986.05
2019-05-30T06:38:58.229Z,986.05
2019-05-30T06:39:58.237Z,986.05
2019-05-30T06:40:58.301Z,986.14
2019-05-30T06:41:58.271Z,986.09
2019-05-30T06:43:58.270Z,986.21
2019-05-30T06:44:58.234Z,986.11
2019-05-30T06:45:58.228Z,986.02
2019-05-30T06:46:58.288Z,986.14
2019-05-30T06:48:58.232Z,986.07
2019-05-30T06:49:58.312Z,985.97
2019-05-30T06:50:58.274Z,986.14
2019-05-30T06:51:58.297Z,986.01
2019-05-30T06:54:58.279Z,986.01
2019-05-30T06:55:58.297Z,986.07
2019-05-30T06:56:58.235Z,986.06
2019-05-30T06:57:58.268Z,986.11
2019-05-30T07:00:58.249Z,986.02
2019-05-30T07:01:58.313Z,985.89
2019-05-30T07:02:58.338Z,985.92
2019-05-30T07:03:58.508Z,985.90
2019-05-30T07:06:58.451Z,985.92
2019-05-30T07:07:58.301Z,985.97
2019-05-30T07:08:58.249Z,985.89
2019-05-30T07:09:58.262Z,985.87
2019-05-30T07:12:58.276Z,986.04
2019-05-30T07:13:58.311Z,986.03
2019-05-30T07:14:58.311Z,986.00
2019-05-30T07:15:58.271Z,985.95
2019-05-30T07:18:58.262Z,986.07
2019-05-30T07:19:58.313Z,986.16
2019-05-30T07:20:58.270Z,986.20
2019-05-30T07:21:58.262Z,986.19
2019-05-30T07:24:58.264Z,986.18
2019-05-30T07:25:58.334Z,986.25
2019-05-30T07:26:58.267Z,986.25
2019-05-30T07:27:58.288Z,986.27
2019-05-30T07:30:58.273Z,986.30
2019-05-30T07:31:58.328Z,986.23
2019-05-30T07:32:58.343Z,986.23
2019-05-30T07:33:58.268Z,986.26
2019-05-30T07:36:58.273Z,986.26
2019-05-30T07:37:58.379Z,986.32
2019-05-30T07:38:58.347Z,986.26
2019-05-30T07:39:58.279Z,986.27
2019-05-30T07:42:58.284Z,986.37
2019-05-30T07:43:58.334Z,986.28
2019-05-30T07:44:58.288Z,986.30
2019-05-30T07:45:58.713Z,986.43
2019-05-30T07:48:58.284Z,986.41
2019-05-30T07:49:58.354Z,986.42
2019-05-30T07:50:58.282Z,986.45
2019-05-30T07:51:58.294Z,986.37
2019-05-30T07:54:58.321Z,986.37
2019-05-30T07:55:58.345Z,986.31
2019-05-30T07:56:58.333Z,986.40
2019-05-30T07:57:58.288Z,986.41
2019-05-30T08:00:58.331Z,986.38
2019-05-30T08:01:58.350Z,986.33
2019-05-30T08:02:58.285Z,986.37
2019-05-30T08:03:58.322Z,986.40
2019-05-30T08:06:58.292Z,986.36
2019-05-30T08:07:58.344Z,986.42
2019-05-30T08:08:58.349Z,986.43
2019-05-30T08:09:58.334Z,986.53
2019-05-30T08:12:58.304Z,986.31
2019-05-30T08:13:58.339Z,986.33
2019-05-30T08:14:58.306Z,986.45
2019-05-30T08:15:58.329Z,986.44
2019-05-30T08:18:58.339Z,986.49
2019-05-30T08:19:58.367Z,986.48
2019-05-30T08:20:58.320Z,986.61
2019-05-30T08:21:58.307Z,986.53
2019-05-30T08:24:58.311Z,986.51
2019-05-30T08:25:58.367Z,986.47
2019-05-30T08:26:58.309Z,986.53
2019-05-30T08:27:58.306Z,986.47
2019-05-30T08:30:58.309Z,986.38
2019-05-30T08:31:58.398Z,986.51
2019-05-30T08:32:58.317Z,986.51
2019-05-30T08:33:58.341Z,986.50
2019-05-30T08:36:58.377Z,986.52
2019-05-30T08:37:58.377Z,986.65
2019-05-30T08:38:58.337Z,986.62
2019-05-30T08:39:58.342Z,986.62
2019-05-30T08:42:58.373Z,986.54
2019-05-30T08:43:58.364Z,986.62
2019-05-30T08:44:58.367Z,986.59
2019-05-30T08:45:58.351Z,986.48
2019-05-30T08:49:01.624Z,986.52
2019-05-30T08:49:58.367Z,986.68
2019-05-30T08:50:58.397Z,986.65
2019-05-30T08:51:58.397Z,986.71
2019-05-30T08:54:58.414Z,986.63
2019-05-30T08:55:58.364Z,986.66
2019-05-30T08:56:58.386Z,986.65
2019-05-30T08:57:58.361Z,986.70
2019-05-30T09:00:58.406Z,986.60
2019-05-30T09:01:58.373Z,986.71
2019-05-30T09:02:58.342Z,986.58
2019-05-30T09:03:58.369Z,986.71
2019-05-30T09:06:58.378Z,986.82
2019-05-30T09:07:58.415Z,986.85
2019-05-30T09:08:58.347Z,986.81
2019-05-30T09:09:58.421Z,986.83
2019-05-30T09:12:58.378Z,986.91
2019-05-30T09:13:58.402Z,986.93
2019-05-30T09:14:58.408Z,986.91
2019-05-30T09:15:58.420Z,986.92
2019-05-30T09:18:58.357Z,986.99
2019-05-30T09:19:58.401Z,986.94
2019-05-30T09:20:58.371Z,987.02
2019-05-30T09:24:58.422Z,986.95
2019-05-30T09:25:58.379Z,986.89
2019-05-30T09:26:58.381Z,987.01
2019-05-30T09:27:58.525Z,986.98
2019-05-30T09:30:58.408Z,986.95
2019-05-30T09:31:58.355Z,986.96
2019-05-30T09:32:58.387Z,986.92
2019-05-30T09:33:58.457Z,986.97
2019-05-30T09:36:58.441Z,987.01
2019-05-30T09:37:58.354Z,986.95
2019-05-30T09:38:58.436Z,986.95
2019-05-30T09:39:58.410Z,987.00
2019-05-30T09:42:58.425Z,986.89
2019-05-30T09:43:58.370Z,986.97
2019-05-30T09:44:58.383Z,986.87
2019-05-30T09:45:58.430Z,986.84
2019-05-30T09:48:58.412Z,986.93
2019-05-30T09:49:58.385Z,986.92
2019-05-30T09:50:58.416Z,987.00
2019-05-30T09:52:18.518Z,987.04
2019-05-30T09:54:58.434Z,986.88
2019-05-30T09:55:58.386Z,986.96
2019-05-30T09:56:58.408Z,986.95
2019-05-30T09:57:58.455Z,986.88
2019-05-30T10:00:58.436Z,986.91
2019-05-30T10:02:07.913Z,986.93
2019-05-30T10:02:58.420Z,986.92
2019-05-30T10:03:58.466Z,987.01
2019-05-30T10:06:58.443Z,986.94
2019-05-30T10:07:58.447Z,986.99
2019-05-30T10:08:58.420Z,986.95
2019-05-30T10:09:58.437Z,987.00
2019-05-30T10:12:58.455Z,987.01
2019-05-30T10:13:58.446Z,986.99
2019-05-30T10:14:58.454Z,987.11
2019-05-30T10:15:58.459Z,987.01
2019-05-30T10:18:58.449Z,987.07
2019-05-30T10:19:58.395Z,987.23
2019-05-30T10:20:58.435Z,987.16
2019-05-30T10:21:58.444Z,987.30
2019-05-30T10:24:58.449Z,987.20
2019-05-30T10:25:58.419Z,987.19
2019-05-30T10:26:58.466Z,987.10
2019-05-30T10:27:58.477Z,987.23
2019-05-30T10:30:59.442Z,987.20
2019-05-30T10:31:58.459Z,987.27
2019-05-30T10:32:58.426Z,987.32
2019-05-30T10:33:58.457Z,987.28
2019-05-30T10:36:58.483Z,987.33
2019-05-30T10:37:58.415Z,987.29
2019-05-30T10:38:58.462Z,987.28
2019-05-30T10:39:59.148Z,987.28
2019-05-30T10:42:58.482Z,987.30
2019-05-30T10:43:58.468Z,987.19
2019-05-30T10:44:58.459Z,987.18
2019-05-30T10:45:58.461Z,987.34
2019-05-30T10:48:58.485Z,987.27
2019-05-30T10:49:58.454Z,987.35
2019-05-30T10:50:58.441Z,987.36
2019-05-30T10:51:59.431Z,987.31
2019-05-30T10:54:58.491Z,987.24
2019-05-30T10:55:58.503Z,987.29
2019-05-30T10:56:58.438Z,987.19
2019-05-30T10:57:59.698Z,987.37
2019-05-30T11:00:58.494Z,987.47
2019-05-30T11:01:58.491Z,987.39
2019-05-30T11:02:58.463Z,987.40
2019-05-30T11:03:58.497Z,987.43
2019-05-30T11:07:10.385Z,987.43
2019-05-30T11:08:03.856Z,987.42
2019-05-30T11:08:58.494Z,987.33
2019-05-30T11:09:58.491Z,987.38
2019-05-30T11:13:05.649Z,987.49
2019-05-30T11:13:58.517Z,987.40
2019-05-30T11:14:58.501Z,987.44
2019-05-30T11:15:58.511Z,987.40
2019-05-30T11:18:58.519Z,987.32
2019-05-30T11:19:58.478Z,987.27
2019-05-30T11:20:58.677Z,987.26
2019-05-30T11:21:58.506Z,987.29
2019-05-30T11:24:59.382Z,987.37
2019-05-30T11:25:58.914Z,987.47
2019-05-30T11:26:58.999Z,987.39
2019-05-30T11:27:58.916Z,987.40
2019-05-30T11:30:58.908Z,987.25
2019-05-30T11:31:59.075Z,987.28
2019-05-30T11:32:59.489Z,987.40
2019-05-30T11:33:59.223Z,987.30
2019-05-30T11:36:59.347Z,987.27
2019-05-30T11:37:59.269Z,987.37
2019-05-30T11:38:59.443Z,987.46
2019-05-30T11:39:59.476Z,987.44
2019-05-30T11:42:59.958Z,987.40
2019-05-30T11:43:59.661Z,987.51
2019-05-30T11:44:59.853Z,987.37
2019-05-30T11:45:59.751Z,987.45
2019-05-30T11:48:59.966Z,987.53
2019-05-30T11:50:00.252Z,987.52
2019-05-30T11:50:58.501Z,987.34
2019-05-30T11:51:59.866Z,987.38
2019-05-30T11:54:58.544Z,987.55
2019-05-30T11:55:58.530Z,987.57
2019-05-30T11:56:58.537Z,987.60
2019-05-30T11:57:58.581Z,987.60
2019-05-30T12:00:58.561Z,987.55
2019-05-30T12:01:58.590Z,987.52
2019-05-30T12:02:58.759Z,987.62
2019-05-30T12:03:58.811Z,987.41
2019-05-30T12:06:58.913Z,987.51
2019-05-30T12:07:58.975Z,987.44
2019-05-30T12:08:58.958Z,987.57
2019-05-30T12:09:58.954Z,987.49
2019-05-30T12:12:59.428Z,987.44
2019-05-30T12:13:59.507Z,987.41
2019-05-30T12:14:59.471Z,987.45
2019-05-30T12:15:59.640Z,987.45
2019-05-30T12:18:59.725Z,987.43
2019-05-30T12:19:59.573Z,987.42
2019-05-30T12:20:59.758Z,987.44
2019-05-30T12:21:59.810Z,987.45
2019-05-30T12:24:58.559Z,987.33
2019-05-30T12:25:58.566Z,987.35
2019-05-30T12:26:58.518Z,987.30
2019-05-30T12:27:58.585Z,987.32
2019-05-30T12:31:03.214Z,987.41
2019-05-30T12:32:00.205Z,987.38
2019-05-30T12:32:58.561Z,987.35
2019-05-30T12:33:58.570Z,987.39
2019-05-30T12:36:58.578Z,987.37
2019-05-30T12:38:02.612Z,987.37
2019-05-30T12:38:58.563Z,987.38
2019-05-30T12:39:58.731Z,987.38
2019-05-30T12:42:59.898Z,987.38
2019-05-30T12:43:59.158Z,987.39
2019-05-30T12:44:59.059Z,987.46
2019-05-30T12:45:59.132Z,987.44
2019-05-30T12:48:59.427Z,987.53
2019-05-30T12:49:59.332Z,987.57
2019-05-30T12:50:59.367Z,987.50
2019-05-30T12:51:58.593Z,987.52
2019-05-30T12:54:58.579Z,987.56
2019-05-30T12:55:58.567Z,987.58
2019-05-30T12:56:58.660Z,987.56
2019-05-30T12:57:58.670Z,987.61
2019-05-30T13:00:58.776Z,987.58
2019-05-30T13:01:58.980Z,987.61
2019-05-30T13:02:58.837Z,987.57
2019-05-30T13:03:58.900Z,987.54
2019-05-30T13:06:59.344Z,987.54
2019-05-30T13:08:14.367Z,987.50
2019-05-30T13:08:59.062Z,987.64
2019-05-30T13:09:59.155Z,987.56
2019-05-30T13:12:59.613Z,987.55
2019-05-30T13:13:58.585Z,987.48
2019-05-30T13:14:59.538Z,987.48
2019-05-30T13:15:58.780Z,987.46
2019-05-30T13:18:59.775Z,987.44
2019-05-30T13:19:59.078Z,987.46
2019-05-30T13:20:58.566Z,987.41
2019-05-30T13:21:59.196Z,987.34
2019-05-30T13:24:59.715Z,987.32
2019-05-30T13:25:59.584Z,987.39
2019-05-30T13:26:59.676Z,987.32
2019-05-30T13:28:01.981Z,987.39
2019-05-30T13:30:58.635Z,987.25
2019-05-30T13:31:58.626Z,987.34
2019-05-30T13:32:58.579Z,987.39
2019-05-30T13:33:58.746Z,987.38
2019-05-30T13:36:58.884Z,987.34
2019-05-30T13:37:59.071Z,987.44
2019-05-30T13:38:59.054Z,987.38
2019-05-30T13:39:59.268Z,987.41
2019-05-30T13:42:59.729Z,987.34
2019-05-30T13:44:02.624Z,987.34
2019-05-30T13:44:59.635Z,987.34
2019-05-30T13:45:58.621Z,987.35
2019-05-30T13:48:58.639Z,987.47
2019-05-30T13:49:58.641Z,987.42
2019-05-30T13:50:58.647Z,987.39
2019-05-30T13:51:58.974Z,987.34
2019-05-30T13:54:59.101Z,987.46
2019-05-30T13:55:59.288Z,987.47
2019-05-30T13:56:59.394Z,987.49
2019-05-30T13:57:59.510Z,987.51
2019-05-30T14:00:59.798Z,987.49
2019-05-30T14:01:59.830Z,987.56
2019-05-30T14:02:59.863Z,987.64
2019-05-30T14:03:59.930Z,987.58
2019-05-30T14:06:59.960Z,987.73
2019-05-30T14:07:59.897Z,987.68
2019-05-30T14:08:58.629Z,987.74
2019-05-30T14:09:58.645Z,987.75
2019-05-30T14:12:58.975Z,987.63
2019-05-30T14:13:58.649Z,987.75
2019-05-30T14:14:58.602Z,987.68
2019-05-30T14:15:58.679Z,987.73
2019-05-30T14:18:58.668Z,987.71
2019-05-30T14:19:58.623Z,987.78
2019-05-30T14:20:58.652Z,987.75
2019-05-30T14:21:58.682Z,987.70
2019-05-30T14:24:58.670Z,987.65
2019-05-30T14:25:58.618Z,987.71
2019-05-30T14:26:58.626Z,987.74
2019-05-30T14:27:58.682Z,987.78
2019-05-30T14:30:58.670Z,987.81
2019-05-30T14:31:58.676Z,987.70
2019-05-30T14:32:58.621Z,987.84
2019-05-30T14:33:58.676Z,987.84
2019-05-30T14:36:58.986Z,987.81
2019-05-30T14:37:58.634Z,987.77
2019-05-30T14:38:59.167Z,987.83
2019-05-30T14:39:58.690Z,987.79
2019-05-30T14:42:58.681Z,987.83
2019-05-30T14:43:58.638Z,987.85
2019-05-30T14:44:58.681Z,987.83
2019-05-30T14:45:58.659Z,987.80
2019-05-30T14:48:58.682Z,987.76
2019-05-30T14:49:58.685Z,987.82
2019-05-30T14:50:58.650Z,987.82
2019-05-30T14:51:58.705Z,987.77
2019-05-30T14:54:58.689Z,987.72
2019-05-30T14:55:58.704Z,987.72
2019-05-30T14:56:58.644Z,987.72
2019-05-30T14:57:58.701Z,987.71
2019-05-30T15:00:58.682Z,987.79
2019-05-30T15:01:58.646Z,987.80
2019-05-30T15:02:58.660Z,987.83
2019-05-30T15:03:58.688Z,987.78
2019-05-30T15:06:58.686Z,987.81
2019-05-30T15:07:58.730Z,987.83
2019-05-30T15:09:14.263Z,987.80
2019-05-30T15:10:44.469Z,987.79
2019-05-30T15:12:58.710Z,987.73
2019-05-30T15:13:58.644Z,987.74
2019-05-30T15:14:58.669Z,987.75
2019-05-30T15:15:58.722Z,987.87
2019-05-30T15:18:58.689Z,987.79
2019-05-30T15:19:58.720Z,987.88
2019-05-30T15:20:58.658Z,987.86
2019-05-30T15:21:58.712Z,987.90
2019-05-30T15:24:58.728Z,987.89
2019-05-30T15:25:58.710Z,987.94
2019-05-30T15:26:58.663Z,988.01
2019-05-30T15:27:58.701Z,987.92
2019-05-30T15:30:58.726Z,987.95
2019-05-30T15:31:58.671Z,987.95
2019-05-30T15:32:58.712Z,987.92
2019-05-30T15:33:58.705Z,987.85
2019-05-30T15:36:58.731Z,987.86
2019-05-30T15:37:58.732Z,987.87
2019-05-30T15:38:58.687Z,987.82
2019-05-30T15:39:58.732Z,987.87
2019-05-30T15:42:58.715Z,987.83
2019-05-30T15:43:58.685Z,987.87
2019-05-30T15:44:58.713Z,987.90
2019-05-30T15:45:58.756Z,987.88
2019-05-30T15:48:58.736Z,987.81
2019-05-30T15:49:58.761Z,987.83
2019-05-30T15:50:58.708Z,987.86
2019-05-30T15:51:58.748Z,987.87
2019-05-30T15:54:58.761Z,987.85
2019-05-30T15:55:58.753Z,987.87
2019-05-30T15:56:58.736Z,987.71
2019-05-30T15:57:58.741Z,987.73
2019-05-30T16:00:58.760Z,987.90
2019-05-30T16:01:58.715Z,987.83
2019-05-30T16:02:58.775Z,987.77
2019-05-30T16:03:58.751Z,987.84
2019-05-30T16:06:58.769Z,987.74
2019-05-30T16:07:58.714Z,987.89
2019-05-30T16:08:58.695Z,987.97
2019-05-30T16:09:58.744Z,987.86
2019-05-30T16:12:58.768Z,987.83
2019-05-30T16:13:58.720Z,987.84
2019-05-30T16:14:58.707Z,987.90
2019-05-30T16:15:58.781Z,987.88
2019-05-30T16:19:12.839Z,987.84
2019-05-30T16:19:58.711Z,987.94
2019-05-30T16:21:01.596Z,987.94
2019-05-30T16:21:59.306Z,987.89
2019-05-30T16:24:58.778Z,987.83
2019-05-30T16:25:58.723Z,987.78
2019-05-30T16:26:58.736Z,987.75
2019-05-30T16:27:58.797Z,987.73
2019-05-30T16:30:58.788Z,987.84
2019-05-30T16:31:58.747Z,987.90
2019-05-30T16:32:58.731Z,987.91
2019-05-30T16:33:58.762Z,987.86
2019-05-30T16:36:58.779Z,987.67
2019-05-30T16:37:58.742Z,987.75
2019-05-30T16:38:58.742Z,987.70
2019-05-30T16:40:06.018Z,987.78
2019-05-30T16:42:58.770Z,987.99
2019-05-30T16:43:58.745Z,987.97
2019-05-30T16:44:58.741Z,988.00
2019-05-30T16:45:58.805Z,987.93
2019-05-30T16:48:58.795Z,987.88
2019-05-30T16:49:58.756Z,987.79
2019-05-30T16:50:58.728Z,987.83
2019-05-30T16:51:58.796Z,987.88
2019-05-30T16:54:58.773Z,987.93
2019-05-30T16:55:58.804Z,987.89
2019-05-30T16:56:58.749Z,987.80
2019-05-30T16:57:58.774Z,987.80
2019-05-30T17:00:58.808Z,988.02
2019-05-30T17:01:58.790Z,987.97
2019-05-30T17:02:58.772Z,987.88
2019-05-30T17:03:58.819Z,987.85
2019-05-30T17:06:58.814Z,988.05
2019-05-30T17:07:58.735Z,987.98
2019-05-30T17:08:58.763Z,988.01
2019-05-30T17:09:58.825Z,987.98
2019-05-30T17:12:58.833Z,988.06
2019-05-30T17:13:58.784Z,988.02
2019-05-30T17:14:58.811Z,987.97
2019-05-30T17:16:00.201Z,987.98
2019-05-30T17:18:58.803Z,987.95
2019-05-30T17:19:58.810Z,987.98
2019-05-30T17:20:58.807Z,987.97
2019-05-30T17:21:58.818Z,987.95
2019-05-30T17:24:58.824Z,987.89
2019-05-30T17:25:58.818Z,987.83
2019-05-30T17:26:58.767Z,987.83
2019-05-30T17:27:59.078Z,987.88
2019-05-30T17:30:58.833Z,987.95
2019-05-30T17:31:58.827Z,987.95
2019-05-30T17:32:58.780Z,987.92
2019-05-30T17:33:58.827Z,987.98
2019-05-30T17:36:58.856Z,987.89
2019-05-30T17:37:58.825Z,987.98
2019-05-30T17:38:58.780Z,988.10
2019-05-30T17:39:58.842Z,988.06
2019-05-30T17:42:58.830Z,988.18
2019-05-30T17:43:58.847Z,988.03
2019-05-30T17:44:58.820Z,988.03
2019-05-30T17:45:58.833Z,987.90
2019-05-30T17:48:58.842Z,988.02
2019-05-30T17:49:58.784Z,988.13
2019-05-30T17:50:58.818Z,988.04
2019-05-30T17:51:58.852Z,988.01
2019-05-30T17:54:58.853Z,987.88
2019-05-30T17:55:59.447Z,988.00
2019-05-30T17:56:58.839Z,988.05
2019-05-30T17:57:58.832Z,988.17
2019-05-30T18:00:58.848Z,987.94
2019-05-30T18:02:00.870Z,987.94
2019-05-30T18:02:58.820Z,987.97
2019-05-30T18:03:58.870Z,988.00
2019-05-30T18:06:58.864Z,987.97
2019-05-30T18:07:58.811Z,987.99
2019-05-30T18:08:58.815Z,988.02
2019-05-30T18:09:58.859Z,988.04
2019-05-30T18:12:58.882Z,988.08
2019-05-30T18:13:58.818Z,988.08
2019-05-30T18:14:58.812Z,988.09
2019-05-30T18:15:58.869Z,987.98
2019-05-30T18:18:58.880Z,987.94